tititudorancea.com
Station Historical Data
Daily Summary for November 12, 2018 Units:  Metric    English   Both
« Previous Day
Next Day »
Daily Weekly Monthly Yearly Custom
  High: Low: Average:
Temperature: -17.8 °C 8.3 °C 20.9 °C
Dew Point: -17.8 °C -0.5 °C 4.6 °C
Humidity: Humidity % 15 % 42 %
Wind Speed: 0 km/h 0 km/h 11.1 km/h
Wind Gust: 0 km/h - -
Wind:- - ESE
Pressure: 0 hPa 1010.4 hPa -
Precipitation: 0 mm    
Historical Graphs
 
 
Ararat weather Find more about Weather in Ararat, AU


 



 


Tabular Data for November 12, 2018
Time Temperature Dew Point Pressure Wind Wind Speed Wind Gust Humidity Rainfall Rate (Hourly)
-17.8 °C -17.8 °C 0 hPa Calm     Humidity % 0 mm
00:04 13.1 °C 8.5 °C 1017.2 hPa SSE 3.7 km/h 1.4 km/h 74 % 0 mm
00:09 13.1 °C 8.5 °C 1017.2 hPa SSE 3.7 km/h 1.3 km/h 74 % 0 mm
00:14 12.9 °C 8.4 °C 1017.2 hPa SSE 3.7 km/h 1 km/h 74 % 0 mm
00:19 12.9 °C 8.4 °C 1017.2 hPa SSE 6.4 km/h 3.5 km/h 74 % 0 mm
00:24 12.7 °C 8.4 °C 1017.2 hPa SSE 5.6 km/h 2.3 km/h 75 % 0 mm
00:29 12.6 °C 8.3 °C 1017.2 hPa SSE 1.9 km/h   75 % 0 mm
00:34 12.6 °C 8.4 °C 1017.2 hPa Calm     76 % 0 mm
00:39 12.4 °C 8.3 °C 1017.2 hPa Calm     76 % 0 mm
00:44 12.2 °C 8.1 °C 1017.2 hPa Calm     76 % 0 mm
00:49 12.1 °C 8.2 °C 1017.2 hPa Calm     77 % 0 mm
00:54 11.8 °C 8.1 °C 1017.2 hPa Calm     78 % 0 mm
00:59 11.7 °C 8.2 °C 1017.2 hPa Calm     79 % 0 mm
01:04 11.6 °C 8.2 °C 1017.2 hPa Calm     80 % 0 mm
01:09 11.6 °C 8.4 °C 1017.2 hPa Calm     81 % 0 mm
01:14 11.4 °C 8.2 °C 1017.2 hPa Calm     81 % 0 mm
01:19 11.3 °C 8.3 °C 1017.2 hPa Calm     82 % 0 mm
01:24 11.3 °C 8.3 °C 1017.2 hPa Calm     82 % 0 mm
01:29 11.2 °C 8.3 °C 1016.8 hPa Calm     82 % 0 mm
01:34 11.2 °C 8.2 °C 1016.8 hPa Calm     82 % 0 mm
01:39 11 °C 8.1 °C 1016.8 hPa Calm     82 % 0 mm
01:44 10.8 °C 7.8 °C 1016.8 hPa Calm     82 % 0 mm
01:49 10.6 °C 7.8 °C 1016.8 hPa Calm     83 % 0 mm
01:54 10.5 °C 7.7 °C 1016.5 hPa Calm     83 % 0 mm
01:59 10.3 °C 7.7 °C 1016.5 hPa Calm     84 % 0 mm
02:04 10.2 °C 7.4 °C 1016.5 hPa Calm     83 % 0 mm
02:09 10.1 °C 7.5 °C 1016.5 hPa Calm     84 % 0 mm
02:14 9.9 °C 7.4 °C 1016.5 hPa Calm     84 % 0 mm
02:19 9.8 °C 7.4 °C 1016.5 hPa Calm     85 % 0 mm
02:24 9.7 °C 7.3 °C 1016.5 hPa Calm     85 % 0 mm
02:29 9.6 °C 7.2 °C 1016.5 hPa Calm     85 % 0 mm
02:34 9.4 °C 7.1 °C 1016.1 hPa Calm     85 % 0 mm
02:39 9.3 °C 7.1 °C 1016.1 hPa Calm     86 % 0 mm
02:44 9.2 °C 7 °C 1016.1 hPa Calm     86 % 0 mm
02:49 9.2 °C 7.1 °C 1016.1 hPa Calm     87 % 0 mm
02:54 9.1 °C 7.1 °C 1016.1 hPa Calm     87 % 0 mm
02:59 9 °C 6.9 °C 1016.1 hPa Calm     87 % 0 mm
03:04 8.9 °C 6.8 °C 1016.1 hPa Calm     87 % 0 mm
03:09 8.9 °C 7 °C 1016.1 hPa Calm     88 % 0 mm
03:14 8.8 °C 6.9 °C 1016.1 hPa Calm     88 % 0 mm
03:19 8.8 °C 7.1 °C 1016.1 hPa Calm     89 % 0 mm
03:24 8.7 °C 6.8 °C 1016.1 hPa Calm     88 % 0 mm
03:29 8.6 °C 6.7 °C 1016.1 hPa Calm     88 % 0 mm
03:34 8.5 °C 6.6 °C 1016.1 hPa Calm     88 % 0 mm
03:39 8.5 °C 6.8 °C 1016.1 hPa Calm     89 % 0 mm
03:44 8.5 °C 6.8 °C 1016.1 hPa Calm     89 % 0 mm
03:49 8.5 °C 6.8 °C 1016.1 hPa Calm     89 % 0 mm
03:54 8.5 °C 6.9 °C 1016.1 hPa Calm     90 % 0 mm
03:59 8.4 °C 6.9 °C 1016.1 hPa Calm     90 % 0 mm
04:04 8.4 °C 6.9 °C 1016.1 hPa Calm     90 % 0 mm
04:09 8.4 °C 6.8 °C 1016.1 hPa Calm     90 % 0 mm
04:14 8.3 °C 6.8 °C 1016.1 hPa Calm     90 % 0 mm
04:19 8.4 °C 6.8 °C 1015.8 hPa Calm     90 % 0 mm
04:24 8.4 °C 6.8 °C 1015.8 hPa Calm     90 % 0 mm
04:29 8.4 °C 7.1 °C 1015.8 hPa Calm     91 % 0 mm
04:34 8.4 °C 7.1 °C 1015.8 hPa Calm     91 % 0 mm
04:39 8.5 °C 7.1 °C 1015.8 hPa Calm     91 % 0 mm
04:44 8.6 °C 7.2 °C 1015.8 hPa Calm     91 % 0 mm
04:49 8.8 °C 7.4 °C 1015.8 hPa SSE 1.6 km/h 1.9 km/h 91 % 0 mm
04:54 9.1 °C 7.7 °C 1015.8 hPa SSE 1.6 km/h 0.5 km/h 91 % 0 mm
04:59 9.2 °C 7.8 °C 1015.8 hPa SSE 1.9 km/h 0.8 km/h 91 % 0 mm
05:04 9.3 °C 7.7 °C 1015.8 hPa SSE 1.9 km/h 0.2 km/h 90 % 0 mm
05:09 9.3 °C 7.8 °C 1015.8 hPa SSE 3.7 km/h 2.1 km/h 90 % 0 mm
05:14 9.4 °C 7.8 °C 1015.8 hPa SSE 5.6 km/h 2.6 km/h 90 % 0 mm
05:19 9.4 °C 7.7 °C 1015.8 hPa SSE 3.7 km/h 2.7 km/h 89 % 0 mm
05:24 9.8 °C 8.3 °C 1015.8 hPa SSE 6.4 km/h 2.6 km/h 90 % 0 mm
05:29 10.7 °C 8.9 °C 1015.8 hPa SSE 3.7 km/h 1.9 km/h 89 % 0 mm
05:34 11.9 °C 9.1 °C 1015.8 hPa SSE 5.6 km/h 4.5 km/h 83 % 0 mm
05:39 12.8 °C 8.9 °C 1015.5 hPa SSE 7.4 km/h 5.3 km/h 77 % 0 mm
05:44 13.7 °C 8.5 °C 1015.5 hPa SSE 5.6 km/h 4.3 km/h 71 % 0 mm
05:49 14.3 °C 8.2 °C 1015.5 hPa SSE 7.4 km/h 5.6 km/h 67 % 0 mm
05:54 14.7 °C 8.2 °C 1015.5 hPa SSE 6.4 km/h 5.1 km/h 65 % 0 mm
05:59 14.8 °C 7.8 °C 1015.5 hPa SSE 7.4 km/h 3.5 km/h 63 % 0 mm
06:04 14.9 °C 7.7 °C 1015.5 hPa SSE 7.4 km/h 3.4 km/h 62 % 0 mm
06:09 14.9 °C 7.5 °C 1015.5 hPa SSE 6.4 km/h 3.2 km/h 61 % 0 mm
06:14 15 °C 7.6 °C 1015.8 hPa SSE 6.4 km/h 5.8 km/h 61 % 0 mm
06:19 15.1 °C 7.4 °C 1015.8 hPa SSE 9.3 km/h 4 km/h 60 % 0 mm
06:24 15.2 °C 7.3 °C 1015.8 hPa SSE 6.4 km/h 3.1 km/h 59 % 0 mm
06:29 15.2 °C 7.3 °C 1015.8 hPa SSE 6.4 km/h 3.5 km/h 59 % 0 mm
06:34 15.3 °C 7.3 °C 1015.8 hPa SSE 7.4 km/h 3.5 km/h 59 % 0 mm
06:39 15.3 °C 7.1 °C 1015.8 hPa SSE 5.6 km/h 5.3 km/h 58 % 0 mm
06:44 15.4 °C 7.2 °C 1015.8 hPa SSE 5.6 km/h 1.9 km/h 58 % 0 mm
06:49 15.6 °C 7.1 °C 1016.1 hPa SSE 5.6 km/h 3.2 km/h 57 % 0 mm
06:54 15.8 °C 7 °C 1016.1 hPa SSE 9.3 km/h 2.3 km/h 56 % 0 mm
06:59 15.9 °C 7.1 °C 1016.1 hPa SSE 3.2 km/h 1.6 km/h 56 % 0 mm
07:04 16 °C 6.9 °C 1016.1 hPa SSE 1.9 km/h 0.5 km/h 55 % 0 mm
07:09 16.1 °C 7.3 °C 1015.8 hPa SSE 1.9 km/h 0.2 km/h 56 % 0 mm
07:14 16.1 °C 7.6 °C 1016.1 hPa SSE 3.7 km/h 2.6 km/h 57 % 0 mm
07:19 16.1 °C 7 °C 1016.1 hPa SSE 7.4 km/h 2.9 km/h 55 % 0 mm
07:24 16.2 °C 7.1 °C 1016.1 hPa SSE 5.6 km/h 4.3 km/h 55 % 0 mm
07:29 16.2 °C 7.2 °C 1016.1 hPa SSE 3.7 km/h 4 km/h 55 % 0 mm
07:34 16.3 °C 7 °C 1015.8 hPa SSE 7.4 km/h 4.8 km/h 54 % 0 mm
07:39 16.5 °C 7.2 °C 1015.8 hPa SSE 9.7 km/h 7.2 km/h 54 % 0 mm
07:44 16.7 °C 7.3 °C 1016.1 hPa SSE 8 km/h 6.9 km/h 54 % 0 mm
07:49 16.8 °C 7.4 °C 1016.1 hPa SSE 8 km/h 6.6 km/h 54 % 0 mm
07:54 16.9 °C 7.8 °C 1016.1 hPa SSE 9.3 km/h 6.1 km/h 55 % 0 mm
07:59 16.9 °C 8.3 °C 1016.1 hPa SSE 7.4 km/h 5.3 km/h 57 % 0 mm
08:04 16.9 °C 8.6 °C 1016.1 hPa SSE 7.4 km/h 5 km/h 58 % 0 mm
08:09 17 °C 8.4 °C 1016.1 hPa SSE 7.4 km/h 3.5 km/h 57 % 0 mm
08:14 17.2 °C 8.6 °C 1016.1 hPa SSE 7.4 km/h 4.5 km/h 57 % 0 mm
08:19 17.5 °C 8.1 °C 1016.1 hPa SSE 7.4 km/h 4.7 km/h 54 % 0 mm
08:24 17.8 °C 7.5 °C 1016.1 hPa SSE 9.3 km/h 6.8 km/h 51 % 0 mm
08:29 18.1 °C 8.1 °C 1016.1 hPa SSE 9.3 km/h 6.8 km/h 52 % 0 mm
08:34 18.2 °C 8.2 °C 1016.1 hPa SSE 7.4 km/h 4.2 km/h 52 % 0 mm
08:39 18.2 °C 7.9 °C 1016.1 hPa SSE 7.4 km/h 3.7 km/h 51 % 0 mm
08:44 18.4 °C 7.5 °C 1016.1 hPa SSE 9.3 km/h 9.3 km/h 49 % 0 mm
08:49 18.6 °C 7.4 °C 1016.1 hPa SSE 13 km/h 6.6 km/h 48 % 0 mm
08:54 19 °C 7.1 °C 1016.5 hPa SSE 13 km/h 8.9 km/h 46 % 0 mm
08:59 19.4 °C 7.5 °C 1016.5 hPa SSE 11.1 km/h 8.5 km/h 46 % 0 mm
09:04 19.8 °C 7.8 °C 1016.5 hPa SSE 11.1 km/h 7.2 km/h 46 % 0 mm
09:09 20.1 °C 7.8 °C 1016.5 hPa SE 14.5 km/h 10.3 km/h 45 % 0 mm
09:14 20.2 °C 7.6 °C 1016.5 hPa East 18.5 km/h 9.8 km/h 44 % 0 mm
09:19 20.4 °C 7.7 °C 1016.5 hPa East 13 km/h 7.4 km/h 44 % 0 mm
09:24 20.7 °C 8.3 °C 1016.5 hPa East 9.3 km/h 5.1 km/h 45 % 0 mm
09:29 21.1 °C 8.7 °C 1016.5 hPa East 9.3 km/h 8 km/h 45 % 0 mm
09:34 21.4 °C 8.3 °C 1016.5 hPa East 13 km/h 9 km/h 43 % 0 mm
09:39 22.1 °C 8.6 °C 1016.5 hPa ENE 8 km/h 7.1 km/h 42 % 0 mm
09:44 22.8 °C 7.3 °C 1016.5 hPa NE 16.7 km/h 12.9 km/h 37 % 0 mm
09:49 23.6 °C 7.2 °C 1016.5 hPa NNE 20.4 km/h 11.1 km/h 35 % 0 mm
09:54 23.8 °C 6.1 °C 1016.5 hPa NNE 25.9 km/h 16.9 km/h 32 % 0 mm
09:59 24.1 °C 6.4 °C 1016.5 hPa North 31.5 km/h 19.8 km/h 32 % 0 mm
10:04 24.4 °C 5.7 °C 1016.1 hPa North 31.5 km/h 18.7 km/h 30 % 0 mm
10:09 24.4 °C 5.7 °C 1016.1 hPa NE 25.9 km/h 19.8 km/h 30 % 0 mm
10:14 24.6 °C 5.8 °C 1016.1 hPa North 27.8 km/h 18.3 km/h 30 % 0 mm
10:19 24.4 °C 5.7 °C 1016.1 hPa NNE 25.9 km/h 13.4 km/h 30 % 0 mm
10:24 24.6 °C 5.8 °C 1016.1 hPa North 22.2 km/h 14.5 km/h 30 % 0 mm
10:29 24.7 °C 6.4 °C 1015.8 hPa North 25.9 km/h 11.4 km/h 31 % 0 mm
10:34 24.7 °C 5.9 °C 1015.8 hPa North 18.5 km/h 9 km/h 30 % 0 mm
10:39 24.7 °C 5.9 °C 1015.8 hPa North 22.2 km/h 13.2 km/h 30 % 0 mm
10:44 24.6 °C 5.3 °C 1015.8 hPa North 24.1 km/h 18.3 km/h 29 % 0 mm
10:49 24.4 °C 5.2 °C 1015.8 hPa North 27.8 km/h 13.7 km/h 29 % 0 mm
10:54 24.3 °C 5.6 °C 1015.8 hPa North 9.3 km/h 4.7 km/h 30 % 0 mm
10:59 24.4 °C 5.2 °C 1015.8 hPa North 14.8 km/h 10.8 km/h 29 % 0 mm
11:04 24.3 °C 5.2 °C 1015.8 hPa North 25.9 km/h 8.2 km/h 29 % 0 mm
11:09 24.2 °C 5 °C 1015.8 hPa North 18.5 km/h 15.6 km/h 29 % 0 mm
11:14 24.1 °C 5.4 °C 1015.8 hPa North 16.7 km/h 10.9 km/h 30 % 0 mm
11:19 24.1 °C 5.4 °C 1015.8 hPa North 16.7 km/h 6.4 km/h 30 % 0 mm
11:24 24.1 °C 5.9 °C 1015.8 hPa North 11.1 km/h 8.7 km/h 31 % 0 mm
11:29 24.1 °C 5.4 °C 1015.8 hPa North 18.5 km/h 12.6 km/h 30 % 0 mm
11:34 24.1 °C 5.4 °C 1015.5 hPa NNE 20.4 km/h 7.4 km/h 30 % 0 mm
11:39 24.2 °C 5.6 °C 1015.5 hPa NNE 18.5 km/h 13.5 km/h 30 % 0 mm
11:44 24.4 °C 5.7 °C 1015.8 hPa NNE 24.1 km/h 18.5 km/h 30 % 0 mm
11:49 24.8 °C 5.6 °C 1015.5 hPa NNE 24.1 km/h 15.6 km/h 29 % 0 mm
11:54 25.2 °C 5.9 °C 1015.5 hPa NNE 20.4 km/h 12.7 km/h 29 % 0 mm
11:59 25.5 °C 5.1 °C 1015.5 hPa NNE 25.9 km/h 18.8 km/h 27 % 0 mm
12:04 25.6 °C 5.2 °C 1015.1 hPa North 25.9 km/h 17.4 km/h 27 % 0 mm
12:09 25.7 °C 4.7 °C 1015.5 hPa NNE 18.5 km/h 15.1 km/h 26 % 0 mm
12:14 25.9 °C 4.9 °C 1015.1 hPa NNE 22.2 km/h 20.6 km/h 26 % 0 mm
12:19 26.2 °C 5.2 °C 1015.1 hPa North 18.5 km/h 11.9 km/h 26 % 0 mm
12:24 26.8 °C 5.7 °C 1015.1 hPa North 29.6 km/h 20.9 km/h 26 % 0 mm
12:29 27 °C 4.7 °C 1015.1 hPa NNE 35.2 km/h 17.1 km/h 24 % 0 mm
12:34 27.2 °C 4.3 °C 1014.8 hPa NNE 25.7 km/h 17.7 km/h 23 % 0 mm
12:39 27.2 °C 4.2 °C 1015.1 hPa North 24.1 km/h 9.7 km/h 23 % 0 mm
12:44 27 °C 4.1 °C 1014.8 hPa NNW 24.1 km/h 14 km/h 23 % 0 mm
12:49 27.2 °C 4.3 °C 1014.8 hPa NNE 22.2 km/h 12.7 km/h 23 % 0 mm
12:54 27.6 °C 3.3 °C 1014.8 hPa NNW 18.5 km/h 12.9 km/h 21 % 0 mm
12:59 27.5 °C 3.9 °C 1014.4 hPa NNW 14.8 km/h 8.5 km/h 22 % 0 mm
13:04 27.4 °C 4.4 °C 1014.4 hPa North 14.5 km/h 13.8 km/h 23 % 0 mm
13:09 27.6 °C 3.9 °C 1014.1 hPa NNE 25.9 km/h 15 km/h 22 % 0 mm
13:14 28.1 °C 4.3 °C 1014.1 hPa NNE 22.2 km/h 12.7 km/h 22 % 0 mm
13:19 28.3 °C 4.6 °C 1014.1 hPa NNE 24.1 km/h 11.4 km/h 22 % 0 mm
13:24 28.7 °C 4.8 °C 1014.1 hPa North 13 km/h 6 km/h 22 % 0 mm
13:29 28.7 °C 3.5 °C 1014.1 hPa North 24.1 km/h 13.8 km/h 20 % 0 mm
13:34 28.4 °C 3.9 °C 1013.8 hPa NNE 16.1 km/h 8.2 km/h 21 % 0 mm
13:39 28.3 °C 3.8 °C 1013.8 hPa NNE 24.1 km/h 15.1 km/h 21 % 0 mm
13:44 28.2 °C 3.8 °C 1013.8 hPa North 16.7 km/h 12.7 km/h 21 % 0 mm
13:49 28.2 °C 3.1 °C 1013.8 hPa NNE 17.7 km/h 12.4 km/h 20 % 0 mm
13:54 28.3 °C 3.8 °C 1013.8 hPa North 20.4 km/h 14.3 km/h 21 % 0 mm
13:59 28.2 °C 3.8 °C 1013.4 hPa NNE 16.7 km/h 13.8 km/h 21 % 0 mm
14:04 28.3 °C 3.2 °C 1013.4 hPa NNW 25.9 km/h 11.7 km/h 20 % 0 mm
14:09 28.2 °C 3.1 °C 1013.4 hPa NNW 14.8 km/h 10 km/h 20 % 0 mm
14:14 28.3 °C 3.9 °C 1013.4 hPa NNW 18.5 km/h 7.6 km/h 21 % 0 mm
14:19 28.6 °C 4.1 °C 1013.1 hPa NNW 16.7 km/h 11.1 km/h 21 % 0 mm
14:24 28.9 °C 3 °C 1013.1 hPa North 22.2 km/h 13.4 km/h 19 % 0 mm
14:29 28.9 °C 3.7 °C 1013.1 hPa North 14.8 km/h 10.5 km/h 20 % 0 mm
14:34 28.9 °C 3.7 °C 1012.8 hPa NNE 13 km/h 7.7 km/h 20 % 0 mm
14:39 29 °C 3.8 °C 1012.8 hPa NNE 20.4 km/h 14 km/h 20 % 0 mm
14:44 29.1 °C 3.8 °C 1012.8 hPa North 11.3 km/h 10.5 km/h 20 % 0 mm
14:49 29.4 °C 3.4 °C 1012.8 hPa North 18.5 km/h 14 km/h 19 % 0 mm
14:54 29.6 °C 4.3 °C 1012.8 hPa North 18.5 km/h 12.7 km/h 20 % 0 mm
14:59 29.9 °C 3 °C 1012.4 hPa NE 18.5 km/h 11.9 km/h 18 % 0 mm
15:04 30.1 °C 3.2 °C 1012.4 hPa NNE 29.6 km/h 17.1 km/h 18 % 0 mm
15:09 29.8 °C 2.9 °C 1012.4 hPa NNE 22.2 km/h 14.6 km/h 18 % 0 mm
15:14 29.9 °C 3.8 °C 1012.1 hPa ENE 16.7 km/h 12.7 km/h 19 % 0 mm
15:19 29.9 °C 2.2 °C 1012.1 hPa NNE 24.1 km/h 14 km/h 17 % 0 mm
15:24 29.9 °C 2.2 °C 1012.1 hPa NNW 20.4 km/h 12.6 km/h 17 % 0 mm
15:29 29.8 °C 2.9 °C 1012.1 hPa NNW 22.5 km/h 14.8 km/h 18 % 0 mm
15:34 29.8 °C 2.9 °C 1012.1 hPa North 29.6 km/h 13.2 km/h 18 % 0 mm
15:39 29.9 °C 3 °C 1012.1 hPa NNE 19.3 km/h 15.9 km/h 18 % 0 mm
15:44 30.1 °C 2.4 °C 1012.1 hPa North 20.4 km/h 10.6 km/h 17 % 0 mm
15:49 29.9 °C 2.2 °C 1011.7 hPa North 22.2 km/h 13.8 km/h 17 % 0 mm
15:54 29.6 °C 1.9 °C 1011.7 hPa NNW 16.7 km/h 11.6 km/h 17 % 0 mm
15:59 29.9 °C 2.2 °C 1011.7 hPa NNE 14.8 km/h 11.6 km/h 17 % 0 mm
16:04 30.1 °C 2.3 °C 1011.4 hPa North 14.8 km/h 10.8 km/h 17 % 0 mm
16:09 30.2 °C 2.4 °C 1011.4 hPa North 22.5 km/h 16.3 km/h 17 % 0 mm
16:14 30.3 °C 2.5 °C 1011.4 hPa NNE 18.5 km/h 10.8 km/h 17 % 0 mm
16:19 30.6 °C 2.8 °C 1011.1 hPa NNE 16.7 km/h 5.1 km/h 17 % 0 mm
16:24 30.8 °C 1.2 °C 1011.1 hPa NNE 14.8 km/h 6.6 km/h 15 % 0 mm
16:29 30.8 °C 2.9 °C 1011.1 hPa North 14.8 km/h 10 km/h 17 % 0 mm
16:34 30.8 °C 2.1 °C 1011.1 hPa North 18.5 km/h 9.5 km/h 16 % 0 mm
16:39 30.7 °C 1.9 °C 1011.1 hPa North 13 km/h 4.2 km/h 16 % 0 mm
16:44 30.6 °C 1.9 °C 1010.7 hPa NE 25.9 km/h 12.1 km/h 16 % 0 mm
16:49 30.5 °C 1.8 °C 1010.7 hPa North 20.4 km/h 16.3 km/h 16 % 0 mm
16:54 30.4 °C 0.9 °C 1010.7 hPa NNW 14.8 km/h 8.9 km/h 15 % 0 mm
16:59 30.5 °C 2.7 °C 1010.7 hPa North 18.5 km/h 10.9 km/h 17 % 0 mm
17:04 30.3 °C 0.8 °C 1010.7 hPa NNE 22.2 km/h 12.1 km/h 15 % 0 mm
17:09 30.2 °C 1.6 °C 1010.7 hPa NNW 18.5 km/h 14 km/h 16 % 0 mm
17:14 30.1 °C 1.5 °C 1010.7 hPa North 17.7 km/h 12.4 km/h 16 % 0 mm
17:19 30.2 °C 1.6 °C 1010.7 hPa NNE 18.5 km/h 13.4 km/h 16 % 0 mm
17:24 30.2 °C 1.6 °C 1010.4 hPa ENE 24.1 km/h 13.2 km/h 16 % 0 mm
17:29 30 °C 1.4 °C 1010.4 hPa NE 16.7 km/h 10.8 km/h 16 % 0 mm
17:34 30 °C 1.4 °C 1010.4 hPa North 22.2 km/h 18.8 km/h 16 % 0 mm
17:39 29.9 °C 1.3 °C 1010.4 hPa NE 24.1 km/h 12.6 km/h 16 % 0 mm
17:44 29.8 °C 1.3 °C 1010.7 hPa NE 20.9 km/h 15 km/h 16 % 0 mm
17:49 29.9 °C 1.3 °C 1010.7 hPa NE 22.2 km/h 13.5 km/h 16 % 0 mm
17:54 29.8 °C 0.4 °C 1010.4 hPa NE 20.4 km/h 16.6 km/h 15 % 0 mm
17:59 29.7 °C 0.3 °C 1010.4 hPa NE 20.4 km/h 12.7 km/h 15 % 0 mm
18:04 29.6 °C 1.1 °C 1010.4 hPa NNE 22.2 km/h 15 km/h 16 % 0 mm
18:09 29.7 °C 1.2 °C 1010.4 hPa NNE 18.5 km/h 8.2 km/h 16 % 0 mm
18:14 29.7 °C 0.3 °C 1010.4 hPa North 29.6 km/h 19.6 km/h 15 % 0 mm
18:19 29.6 °C 1.1 °C 1010.4 hPa NE 13 km/h 6.3 km/h 16 % 0 mm
18:24 29.4 °C 0.1 °C 1010.4 hPa NNE 20.4 km/h 15 km/h 15 % 0 mm
18:29 29.3 °C 0.9 °C 1010.4 hPa NE 18.5 km/h 12.2 km/h 16 % 0 mm
18:34 29.2 °C 0.8 °C 1010.4 hPa NE 18.5 km/h 13.7 km/h 16 % 0 mm
18:39 28.9 °C 0.6 °C 1010.4 hPa NNE 18.5 km/h 13.5 km/h 16 % 0 mm
18:44 28.7 °C 0.4 °C 1010.4 hPa NNE 20.4 km/h 17.2 km/h 16 % 0 mm
18:49 28.6 °C 1.2 °C 1010.4 hPa NNE 22.2 km/h 16.9 km/h 17 % 0 mm
18:54 28.5 °C 0.2 °C 1010.4 hPa NNE 20.4 km/h 13.5 km/h 16 % 0 mm
18:59 28.4 °C 0.1 °C 1010.4 hPa NNE 32.2 km/h 15.8 km/h 16 % 0 mm
19:04 28.3 °C 0.9 °C 1010.7 hPa NNE 20.4 km/h 10.5 km/h 17 % 0 mm
19:09 28.3 °C 0.1 °C 1010.7 hPa NNE 18.5 km/h 15.1 km/h 16 % 0 mm
19:14 28.2 °C 0.8 °C 1010.7 hPa NNE 18.5 km/h 7.2 km/h 17 % 0 mm
19:19 28.1 °C -0.1 °C 1010.7 hPa NNE 18.5 km/h 15.4 km/h 16 % 0 mm
19:24 28.1 °C -0.1 °C 1010.7 hPa NNE 14.8 km/h 9.3 km/h 16 % 0 mm
19:29 27.9 °C -0.2 °C 1010.4 hPa NNE 18.5 km/h 9.2 km/h 16 % 0 mm
19:34 27.8 °C -0.3 °C 1010.4 hPa North 17.7 km/h 8.9 km/h 16 % 0 mm
19:39 27.6 °C -0.5 °C 1010.4 hPa NNE 20.4 km/h 8.9 km/h 16 % 0 mm
19:44 27.4 °C 0.2 °C 1010.7 hPa NNE 13 km/h 8.4 km/h 17 % 0 mm
19:49 27.3 °C 0.1 °C 1010.7 hPa NNE 20.4 km/h 9.5 km/h 17 % 0 mm
19:54 27.2 °C 0.1 °C 1010.7 hPa NNE 14.8 km/h 6.1 km/h 17 % 0 mm
19:59 27.1 °C -0.1 °C 1010.7 hPa NNE 9.3 km/h 9.2 km/h 17 % 0 mm
20:04 26.9 °C -0.2 °C 1010.7 hPa NNE 9.7 km/h 9.3 km/h 17 % 0 mm
20:09 26.8 °C 0.4 °C 1010.7 hPa NNE 7.4 km/h 8.7 km/h 18 % 0 mm
20:14 26.7 °C 0.4 °C 1010.7 hPa NNE 14.8 km/h 10.1 km/h 18 % 0 mm
20:19 26.5 °C 0.2 °C 1010.7 hPa NNE 13 km/h 9.3 km/h 18 % 0 mm
20:24 26.3 °C 0.1 °C 1010.7 hPa NNE 11.1 km/h 7.1 km/h 18 % 0 mm
20:29 26.1 °C -0.1 °C 1010.7 hPa NNE 6.4 km/h 4.5 km/h 18 % 0 mm
20:34 25.9 °C 0.5 °C 1010.7 hPa NNE 6.4 km/h 4.3 km/h 19 % 0 mm
20:39 25.7 °C 0.3 °C 1010.7 hPa NNE 5.6 km/h 2.1 km/h 19 % 0 mm
20:44 25.4 °C 0.1 °C 1011.1 hPa NNE 7.4 km/h 3.7 km/h 19 % 0 mm
20:49 25.2 °C -0.1 °C 1011.1 hPa NNE 7.4 km/h 3.4 km/h 19 % 0 mm
20:54 25.1 °C 0.6 °C 1011.1 hPa NNE 5.6 km/h 3.2 km/h 20 % 0 mm
20:59 25 °C 0.4 °C 1011.1 hPa NNE 7.4 km/h 2.9 km/h 20 % 0 mm
21:04 24.9 °C 0.4 °C 1011.1 hPa NNE 5.6 km/h 3.7 km/h 20 % 0 mm
21:09 24.8 °C 1 °C 1010.7 hPa NNE 5.6 km/h 1.8 km/h 21 % 0 mm
21:14 24.7 °C 0.9 °C 1010.7 hPa NNE 5.6 km/h 3.9 km/h 21 % 0 mm
21:19 24.3 °C 1.2 °C 1011.1 hPa NNE 5.6 km/h 4.2 km/h 22 % 0 mm
21:24 24.1 °C 1.1 °C 1011.1 hPa NNE 5.6 km/h 4.2 km/h 22 % 0 mm
21:29 24 °C 0.9 °C 1011.1 hPa NNE 5.6 km/h 3.2 km/h 22 % 0 mm
21:34 23.8 °C 1.4 °C 1011.1 hPa NNE 5.6 km/h 3.4 km/h 23 % 0 mm
21:39 23.8 °C 1.4 °C 1011.1 hPa NNE 5.6 km/h 4.3 km/h 23 % 0 mm
21:44 23.7 °C 1.3 °C 1011.1 hPa NNE 5.6 km/h 1.8 km/h 23 % 0 mm
21:49 23.7 °C 1.3 °C 1011.1 hPa NNE 5.6 km/h 1.6 km/h 23 % 0 mm
21:54 23.6 °C 1.2 °C 1011.1 hPa NNE 3.7 km/h 0.6 km/h 23 % 0 mm
21:59 23.5 °C 1.8 °C 1011.1 hPa NNE 1.9 km/h 0.3 km/h 24 % 0 mm
22:04 23.4 °C 1.7 °C 1011.1 hPa NNE 5.6 km/h 3.1 km/h 24 % 0 mm
22:09 23.3 °C 2.2 °C 1011.1 hPa NNE 1.9 km/h   25 % 0 mm
22:14 23.1 °C 2 °C 1011.1 hPa Calm     25 % 0 mm
22:19 22.9 °C 1.8 °C 1011.1 hPa Calm     25 % 0 mm
22:24 22.7 °C 3.3 °C 1011.1 hPa NNE 1.9 km/h 0.6 km/h 28 % 0 mm
22:29 22.5 °C 2.6 °C 1011.1 hPa Calm     27 % 0 mm
22:34 22.2 °C 2.8 °C 1011.1 hPa Calm     28 % 0 mm
22:39 22 °C 3.6 °C 1010.7 hPa NNE 1.9 km/h   30 % 0 mm
22:44 21.9 °C 3.1 °C 1010.7 hPa NNE 1.9 km/h   29 % 0 mm
22:49 21.7 °C 2.8 °C 1010.7 hPa Calm     29 % 0 mm
22:54 21.4 °C 2.6 °C 1010.7 hPa Calm     29 % 0 mm
22:59 21.2 °C 2.4 °C 1010.4 hPa Calm     29 % 0 mm
23:04 21 °C 3.2 °C 1010.4 hPa Calm     31 % 0 mm
23:09 20.6 °C 3.3 °C 1010.4 hPa Calm     32 % 0 mm
23:14 20.3 °C 3.1 °C 1010.4 hPa NNE 1.9 km/h   32 % 0 mm
23:19 20.2 °C 3.8 °C 1010.4 hPa NNE 3.7 km/h 2.6 km/h 34 % 0 mm
23:24 20.1 °C 2.9 °C 1010.4 hPa NNE 5.6 km/h 1.4 km/h 32 % 0 mm
23:29 20.1 °C 2.4 °C 1010.4 hPa NNE 1.9 km/h 2.1 km/h 31 % 0 mm
23:34 20.3 °C 2.1 °C 1010.4 hPa NNE 3.7 km/h 3.1 km/h 30 % 0 mm
23:39 20.6 °C 1.9 °C 1010.4 hPa NNE 3.7 km/h 3.4 km/h 29 % 0 mm
23:44 20.8 °C 2.1 °C 1010.4 hPa NNE 5.6 km/h 2.4 km/h 29 % 0 mm
23:49 20.9 °C 2.2 °C 1010.4 hPa NNE 5.6 km/h 3.7 km/h 29 % 0 mm
23:54 20.9 °C 2.7 °C 1010.4 hPa NNE 3.7 km/h 2.3 km/h 30 % 0 mm
23:59 20.8 °C 1.6 °C 1010.4 hPa NNE 5.6 km/h 4.3 km/h 28 % 0 mm
Ararat Weather
Compliments of Weather Underground - 2.25 mb
Click here to send mail.


ABOUT

Live weather data from Ararat, Victoria, Australia, 3377
Data uploaded from Cumulus every 5 minutes to Weather Underground.
This site then downloads the raw data for formatting and display.
Metric and imperial data can be displayed. Graphs and historical data available.
Includes Sun and Moon times and rain image live from BOM.

Check out Ararat Weather on Facebook, Twitter and Google +

Help support ongoing costs by checking out the ads





Follow @AraratWeather